Results by/Résultats par Info:[email protected] Phone: (613)260-0994

                                     K-TOWN TRIATHLON

                                  Sunday August 6th, 2000
                           Confederation Park, Kingston, Ontario

                         Overall Results - Short Course Triathlon

  -----FINAL----- ----------------------- ------------ -------------------- ----            750m                        32 km                   7.2 km
                                                       Category                     --------SWIM----------    ----------BIKE--------    ---------RUN----------
    Pos     Time  Name                    City         Plc/Total Category     #      Cat  Ovr  Time  /100m     Cat Ovr Time  km/hr      Cat  Ovr  Time     km
  ------  ------- ----------------------- ------------ -------------------- ----    ----------------------    ----------------------    ----------------------
    1     1:22:43 Stephen Flower          Burlington     1/1   Elite Men     508    1      1    7:54  1:04    1      2   48:19  39.8     1      2   26:30  3:41 
    2     1:24:18 Kharim Schliewinsky     Victoria       1/26  M25 - 29      559    1      7    9:07  1:13    1      1   48:15  39.8     1      4   26:56  3:45 
    3     1:25:47 Dalton Cote             Kingston       1/28  M35 - 39      889    3     16   10:03  1:21    1      3   48:56  39.3     2      3   26:49  3:44 
    4     1:27:43 Peter Doyle             Saddlerock     2/28  M35 - 39      895    5     38   11:46  1:35    2      6   50:23  38.1     1      1   25:35  3:34 
    5     1:27:47 Jeff Walsh              Belleville     2/26  M25 - 29      797    4     28   10:57  1:28    2      4   49:24  38.9     2      6   27:27  3:49 
    6     1:28:09 George Tolkachev        Nepean         3/28  M35 - 39      796    1     11    9:22  1:15    3      7   50:34  38.0     3      7   28:14  3:56 
    7     1:29:04 Ron Webb                Nepean         1/12  M45 - 49      596    2     29   10:59  1:28    1      5   49:41  38.6     1      9   28:25  3:57 
    8     1:30:23 Graeme Smith            Kingston       4/28  M35 - 39      722    2     12    9:36  1:17    4      8   50:38  37.9     6     20   30:10  4:12 
    9     1:31:03 Jeff Morris             Toronto        1/13  M40 - 44      771    3     34   11:42  1:34    1      9   50:52  37.8     1     10   28:30  3:58 
   10     1:31:08 Rachel Joyce            Kingston       1/1   Elite Women   509    1      3    8:43  1:10    1     24   53:23  36.0     1     13   29:03  4:03 
   11     1:31:17 Rod Diaz                Kingston       1/2   Junior Men    779    1      6    9:02  1:13    1     40   55:00  34.9     1      5   27:16  3:48 
   12     1:31:56 Matt Takach             Kanata         1/11  M20 - 24      798    1      2    8:21  1:07    2     17   52:48  36.4     4     28   30:48  4:17 
   13     1:32:40 Chris Rath              Toronto        1/24  M30 - 34      578    1     13    9:49  1:19    1     12   52:20  36.7     2     24   30:31  4:15 
   14     1:33:06 Gary Tranmer            Kingston       2/12  M45 - 49      859    1     18   10:14  1:22    2     18   52:55  36.3     2     18   29:58  4:10 
   15     1:33:22 Marie-Josee Danais      CFB Borden     1/33  W25 - 29      857    3     10    9:18  1:15    2     22   53:12  36.1     2     31   30:53  4:18 
   16     1:33:28 Brock Davis             Brockville     2/24  M30 - 34      897    2     14    9:54  1:20    2     16   52:46  36.4     5     30   30:50  4:17 
   17     1:33:47 Stephen Cann            Ottawa         2/11  M20 - 24      824    2     23   10:34  1:25    3     21   53:00  36.2     3     22   30:14  4:12 
   18     1:34:03 Casey MacLeod           Kingston       3/11  M20 - 24      788    3     37   11:45  1:34    1     13   52:29  36.6     2     16   29:49  4:09 
   19     1:34:50 Duane Bryson            Trenton        3/26  M25 - 29      751    13   102   14:24  1:56    3     10   51:13  37.5     4     14   29:15  4:04 
   20     1:34:55 Todd Hughson            Toronto        3/24  M30 - 34      689    3     20   10:21  1:23    4     34   54:25  35.3     1     21   30:10  4:12 
   21     1:35:02 Jillian Flower          Burlington     2/33  W25 - 29      856    6     24   10:37  1:25    1     19   52:57  36.3     3     42   31:29  4:23 
   22     1:35:24 Chris Johnson           Stittsville    4/26  M25 - 29      816    2     22   10:32  1:25    5     29   53:41  35.8     7     37   31:12  4:20 
   23     1:35:34 Erin Hawes              Kingston       1/4   Junior Women  628    1      8    9:12  1:14    1     30   53:41  35.8     1     60   32:42  4:33 
   24     1:35:43 Jennifer CAMPBELL       Montreal       1/14  W20 - 24      927    1      5    8:54  1:12    1     27   53:36  35.8     2     67   33:14  4:37 
   25     1:35:50 Jim Murray              Gananoque      2/13  M40 - 44      714    6     57   13:08  1:46    2     15   52:45  36.4     2     17   29:57  4:10 
   26     1:36:04 Martin Courtenay        Kingston                           832          32   11:31  1:33          14   52:36  36.5           48   31:58  4:27 
   27     1:36:25 Emily Sinclair          Kingston       3/33  W25 - 29      830    2      9    9:16  1:15    7     78   57:42  33.3     1     15   29:28  4:06 
   28     1:36:35 Mark Cunningham         Ottawa         5/28  M35 - 39      762    11    95   14:11  1:54    8     33   53:54  35.6     4     11   28:30  3:58 
   29     1:36:58 Randal Dyzak            Kingston       6/28  M35 - 39      843    4     31   11:25  1:32    7     23   53:17  36.0     8     54   32:17  4:29 
   30     1:37:26 Michael Higuchi         Kingston       4/11  M20 - 24      812    6     82   13:44  1:50    5     45   55:19  34.7     1      8   28:24  3:57 
   31     1:37:37 Jim Laird               Kingston       3/12  M45 - 49      592    3     50   12:46  1:43    3     25   53:25  36.0     4     41   31:27  4:22 
   32     1:37:38 Jim Clark               Kingston       4/24  M30 - 34      907    4     27   10:51  1:27    11    54   56:10  34.2     3     26   30:38  4:16 
   33     1:37:48 Kevin Hall              Kingston       3/13  M40 - 44      818    1     25   10:44  1:26    4     41   55:01  34.9     4     50   32:04  4:28 
   34     1:37:49 James Layfield          Godfrey        7/28  M35 - 39      854    10    90   13:58  1:52    5     11   51:37  37.2     7     53   32:14  4:29 
   35     1:37:51 Brad Smith              Ottawa         5/24  M30 - 34      837    6     44   12:15  1:38    5     39   54:59  34.9     4     27   30:38  4:16 
   36     1:37:54 Bill Hazlett            Rochester      5/26  M25 - 29      715    7     59   13:11  1:46    4     26   53:31  35.9     8     38   31:14  4:21 
   37     1:38:01 Rebecca Glennie         Toronto        4/33  W25 - 29      668    1      4    8:47  1:11    4     53   56:08  34.2     6     66   33:07  4:36 
   38     1:38:06 Scott Vowles            Kingston       6/26  M25 - 29      611    5     48   12:32  1:41    6     42   55:03  34.9     5     25   30:33  4:15 
   39     1:38:10 Don Cowin               Bath           4/13  M40 - 44      523    2     30   11:19  1:31    5     56   56:28  34.0     3     23   30:24  4:14 
   40     1:38:22 Janine Rockel           Kingston       5/33  W25 - 29      852    7     33   11:32  1:33    3     36   54:47  35.0     4     49   32:04  4:28 
   41     1:38:31 Cathy Bodnoff           Ottawa         1/14  W35 - 39      819    4     56   13:07  1:45    1     32   53:54  35.6     1     43   31:31  4:23 
   42     1:38:45 Paul Scully             Ottawa         6/24  M30 - 34      565    5     39   11:48  1:35    9     48   56:00  34.3     7     33   30:57  4:18 
   43     1:38:52 Nancy Morrison          Kanata         1/9   W40 - 44      607    1     47   12:23  1:40    1     38   54:54  35.0     1     45   31:35  4:24 
   44     1:39:06 Andrea MCGILL           Kingston       1/17  W30 - 34      928    1     15    9:59  1:20    1     59   56:31  34.0     2     56   32:36  4:32 
   45     1:39:10 Sylvie Chouinard        St Nicholas    2/14  W20 - 24      634    2     35   11:43  1:34    2     52   56:07  34.2     1     39   31:21  4:22 
   46     1:39:49 John Gardener           Kingston       8/28  M35 - 39      871    9     80   13:40  1:50    10    51   56:06  34.2     5     19   30:04  4:11 
   47     1:40:36 Charles Gaudette        Kingston       9/28  M35 - 39      672    7     77   13:35  1:49    6     20   52:58  36.3     11    79   34:04  4:44 
   48     1:40:44 Laurie Ross             Battersea      2/14  W35 - 39      549    1     40   11:56  1:36    2     64   56:57  33.7     2     47   31:52  4:26 
   49     1:40:52 William Cooper          Kingston       5/13  M40 - 44      702    4     42   12:12  1:38    3     37   54:53  35.0     7     75   33:49  4:42 
   50     1:41:04 Peter Sims              Ottawa         1/11  M50 - 54      543    1     69   13:25  1:48    1     55   56:16  34.1     1     40   31:24  4:22 
   51     1:41:20 Tim Gillespe            Kingston       5/11  M20 - 24      813    4     43   12:13  1:38    4     31   53:49  35.7     7    101   35:19  4:55 
   52     1:41:39 David McClintock        Ottawa         4/12  M45 - 49      770    4     67   13:22  1:47    5     73   57:15  33.5     3     35   31:03  4:19 
   53     1:42:00 Aaron Campbell          Kingston       7/26  M25 - 29      653    14   125   15:31  2:05    8     77   57:37  33.3     3     12   28:53  4:01 
   54     1:42:05 Paul Lavallee           Toronto        7/24  M30 - 34      744    15   117   15:02  2:01    10    49   56:03  34.3     8     34   31:01  4:19 
   55     1:42:23 Wendy Fitzpatrick       Ottawa         2/17  W30 - 34      786    2     58   13:09  1:46    2     68   57:03  33.7     1     52   32:12  4:29 
   56     1:42:26 Christopher Rubeck      Geneseo        8/24  M30 - 34      885    17   145   16:27  2:12    6     43   55:03  34.9     6     32   30:57  4:18 
   57     1:42:30 Robert Lukshis          Stittsville   10/28  M35 - 39      736    8     79   13:39  1:50    9     50   56:04  34.3     10    62   32:48  4:34 
   58     1:42:42 Michael TESKE           Aylmer         9/24  M30 - 34      932    10    97   14:17  1:55    3     28   53:38  35.8     12    95   34:48  4:50 
   59     1:42:56 Allan Elliott           Chateauguay    6/13  M40 - 44      923    7     76   13:33  1:49    6     61   56:40  33.9     5     61   32:44  4:33 
   60     1:43:03 Neta Taylor             Elizabethtow   6/33  W25 - 29      834    5     21   10:29  1:24    5     60   56:39  33.9     9    111   35:56  5:00 
   61     1:43:03 Martin Guyon            Kingston      10/24  M30 - 34      734    9     92   14:02  1:53    15    76   57:27  33.4     10    44   31:35  4:24 
   62     1:43:10 Alison McConnell        Kingston       7/33  W25 - 29      761    11    53   12:55  1:44    6     66   56:59  33.7     7     68   33:17  4:38 
   63     1:43:39 David Gouette           Kingston      11/24  M30 - 34      749    7     68   13:23  1:48    14    71   57:12  33.6     11    65   33:04  4:36 
   64     1:43:46 Karine Henrie           Ottawa         3/14  W20 - 24      811    3     36   11:43  1:34    4     86   58:06  33.1     3     77   33:57  4:43 
   65     1:44:01 Wendy Flecker           Kingston       3/14  W35 - 39      619    3     52   12:53  1:43    3     67   57:02  33.7     4     81   34:07  4:45 
   66     1:44:17 Victor Penner           Orleans       12/24  M30 - 34      694    19   167   17:45  2:22    8     46   55:21  34.7     9     36   31:11  4:20 
   67     1:44:24 Francisco Espinosa      Kingston       5/12  M45 - 49      783    5     84   13:49  1:51    4     35   54:41  35.1     9    110   35:55  5:00 
   68     1:44:32 Lauren Wells            Holland Land   2/4   Junior Women  758    2     19   10:21  1:23    2     82   57:49  33.2     2    117   36:22  5:04 
   69     1:44:39 Brad Hilton             Belleville     8/26  M25 - 29      917    10    89   13:57  1:52    7     72   57:13  33.6     11    71   33:30  4:40 
   70     1:44:49 Sebastian Gilbert       Kingston       9/26  M25 - 29      904    16   139   16:18  2:11    9     79   57:44  33.3     6     29   30:48  4:17 
   71     1:44:49 Joe Bodendistel         Brockville    11/28  M35 - 39      614    6     75   13:32  1:49    11    58   56:30  34.0     15    96   34:48  4:50 
   72     1:45:14 Jennifer Gilbert        Gloucester     8/33  W25 - 29      644    4     17   10:04  1:21    10    92   58:23  32.9     12   127   36:48  5:07 
   73     1:45:17 Alain DUBE              Ottawa         6/11  M20 - 24      603    5     60   13:12  1:46    6     47   55:58  34.3     8    115   36:08  5:02 
   74     1:45:57 Kevin McCormick         Toronto       10/26  M25 - 29      699    11    91   14:01  1:53    11    99   59:25  32.3     9     55   32:32  4:32 
   75     1:46:31 David Macdonald         Kingston      13/24  M30 - 34      815    11   105   14:30  1:56    7     44   55:15  34.8     17   126   36:48  5:07 
   76     1:46:38 Paul Sandusky           Toronto       11/26  M25 - 29      612    6     49   12:34  1:41    14   105   59:46  32.1     14    84   34:19  4:46 
   77     1:46:41 Gunther Klaschka        Kingston       1/5   M60 & Over    772    1     85   13:51  1:51    1     70   57:11  33.6     1    106   35:39  4:58 
   78     1:47:47 Dave Andrew             Kingston       6/12  M45 - 49      922    8    154   17:01  2:17    6     88   58:08  33.0     6     59   32:40  4:33 
   79     1:47:55 Lesley Cassidy          Ottawa         3/17  W30 - 34      703    6     81   13:42  1:50    4    116 1:00:40  31.7     3     72   33:34  4:40 
   80     1:48:06 Walter Rudy             Mancellus      7/12  M45 - 49      609    7    122   15:20  2:03    7    108   59:58  32.0     7     63   32:49  4:34 
   81     1:48:09 Brian Awrey             Ottawa        14/24  M30 - 34      773    8     74   13:31  1:49    13    63   56:56  33.7     19   136   37:44  5:15 
   82     1:48:24 Caroline Stone          Ottawa         4/14  W20 - 24      605    4     54   12:59  1:44    3     81   57:48  33.2     6    134   37:38  5:14 
   83     1:48:36 Natalie Daigle          Kingston       4/14  W35 - 39      673    5     70   13:26  1:48    5    113 1:00:33  31.7     5     90   34:38  4:49 
   84     1:48:40 Jennifer Brown          Ottawa         9/33  W25 - 29      643    9     45   12:16  1:39    17   150 1:03:33  30.2     5     64   32:52  4:34 
   85     1:49:03 Bruce MacNaughton       Kingston       7/13  M40 - 44      558    5     55   13:01  1:45    7     65   56:57  33.7     12   162   39:06  5:26 
   86     1:49:08 Andrew Keeves           Kingston       2/2   Junior Men    754    2    148   16:34  2:13    2     97   59:13  32.4     2     69   33:22  4:39 
   87     1:49:09 Peter Bryson            Kingston       2/11  M50 - 54      551    2    114   14:53  2:00    3     80   57:44  33.3     6    118   36:32  5:05 
   88     1:49:20 Andrew Niska            Ottawa        15/24  M30 - 34      863    12   112   14:51  1:59    17    96   59:12  32.4     13    99   35:19  4:55 
   89     1:49:30 Ed Brand                Kingston       3/11  M50 - 54      591    7    136   16:05  2:09    4     90   58:15  33.0     5     98   35:11  4:54 
   90     1:49:47 Andrew Parry            RR1 Corbyvil   7/11  M20 - 24      647    9    166   17:43  2:22    8     74   57:22  33.5     5     93   34:43  4:50 
   91     1:50:07 Kelly Robertson         Dunrobin       5/14  W35 - 39      610    6     87   13:54  1:52    6    136 1:02:32  30.7     3     73   33:41  4:41 
   92     1:50:14 Deirdre O'REILLY        Kingston                          8004         146   16:29  2:12          85   58:04  33.1          107   35:42  4:58 
   93     1:50:20 Deborah Powell          Peterborough   5/14  W20 - 24      577    5     72   13:28  1:48    7    132 1:02:14  30.9     4     91   34:39  4:49 
   94     1:50:30 Jonathon Walker         Kingston       8/11  M20 - 24      780    8    153   16:58  2:16    7     57   56:29  34.0     9    130   37:05  5:09 
   95     1:50:38 Kalle Pugi              Kingston      12/28  M35 - 39      903    22   180   18:24  2:28    14   103   59:38  32.2     9     57   32:37  4:32 
   96     1:50:39 Stephen Drummond        Kingston      13/28  M35 - 39      630    13   103   14:25  1:56    13    93   58:26  32.9     20   141   37:49  5:16 
   97     1:50:45 Gord McInnes            Kingston      16/24  M30 - 34      556    21   179   18:23  2:28    12    62   56:52  33.8     14   103   35:30  4:56 
   98     1:51:00 Ann Marie Brady         Ottawa         2/9   W40 - 44      781    3    147   16:30  2:12    2    106   59:57  32.0     2     89   34:33  4:48 
   99     1:51:01 Doug Macklem            Kingston       8/13  M40 - 44      633    9    138   16:10  2:10    12   121 1:01:25  31.3     6     70   33:27  4:39 
  100     1:51:14 Jeff BLOOM              Toronto       12/26  M25 - 29      929    9     64   13:18  1:47    10    89   58:09  33.0     23   169   39:48  5:32 
  101     1:51:17 Joan Post               Kingston      10/33  W25 - 29      625    13    83   13:45  1:50    13   118 1:01:01  31.5     11   119   36:32  5:05 
  102     1:51:18 Helen Pearce            Kingston       6/14  W35 - 39      665    7     93   14:04  1:53    7    137 1:02:34  30.7     6     92   34:42  4:50 
  103     1:51:30 David Denison           Belleville    17/24  M30 - 34      712    14   116   15:02  2:01    18   114 1:00:35  31.7     15   109   35:55  5:00 
  104     1:51:43 Carmen Nielson Varty    Kingston      11/33  W25 - 29      554    12    61   13:14  1:46    8     84   58:03  33.1     22   180   40:27  5:37 
  105     1:51:49 Steve Sills             Komoka        14/28  M35 - 39      829    16   142   16:24  2:12    15   109 1:00:01  32.0     16   102   35:26  4:56 
  106     1:52:06 Marc Wilkinson          Ottawa        13/26  M25 - 29      706    8     63   13:17  1:47    17   149 1:03:30  30.2     15   100   35:19  4:55 
  107     1:52:30 Jessica Hamilton        Kingston      12/33  W25 - 29      682    16   104   14:28  1:56    15   129 1:02:04  30.9     10   113   35:59  5:00 
  108     1:52:31 Janice Kwon             Toronto        4/17  W30 - 34      690    13   188   19:18  2:35    3     94   58:47  32.7     4     86   34:26  4:47 
  109     1:52:35 Michelle Goecke         Kingston      13/33  W25 - 29      752    8     41   12:03  1:37    18   151 1:03:36  30.2     13   129   36:56  5:08 
  110     1:52:42 Brian Farnell           Inverary       8/12  M45 - 49      671    9    156   17:04  2:17    9    154 1:03:57  30.0     5     46   31:42  4:25 
  111     1:52:45 Ari Weisberg            York           4/11  M50 - 54      730    5    126   15:33  2:05    9    143 1:03:00  30.5     4     82   34:13  4:46 
  112     1:52:48 Murray Sinclair         Vancouver     15/28  M35 - 39      533    12    96   14:15  1:54    19   126 1:01:48  31.1     18   124   36:46  5:07 
  113     1:52:52 Joan Tranmer            Kingston       1/6   W45 - 49      586    1     62   13:15  1:46    1    117 1:00:42  31.6     3    158   38:56  5:25 
  114     1:52:54 AnneMarie Rogers        Ballinafad    14/33  W25 - 29      593    10    51   12:47  1:43    14   127 1:01:50  31.1     17   149   38:18  5:20 
  115     1:53:05 Corry Burke             Ottawa        14/26  M25 - 29      911    3     26   10:45  1:26    18   155 1:04:00  30.0     22   150   38:20  5:20 
  116     1:53:06 Holly Meyer             Brownsburg     5/17  W30 - 34      826    5     78   13:36  1:49    6    140 1:02:47  30.6     6    122   36:43  5:06 
  117     1:53:28 David Kolthoff          Kingston      18/24  M30 - 34      613    18   163   17:39  2:22    16    95   58:54  32.6     18   128   36:55  5:08 
  118     1:53:29 Rick Baggs              Kingston       9/13  M40 - 44      632    10   176   18:10  2:26    10    98   59:15  32.4     8    114   36:05  5:01 
  119     1:53:37 Mike Davidson           Toronto       15/26  M25 - 29      768    21   200   20:17  2:43    12   100   59:27  32.3     13    76   33:55  4:43 
  120     1:53:44 Tom Murphy              Barrie        10/13  M40 - 44      727    8    107   14:33  1:57    11   120 1:01:14  31.4     9    143   37:58  5:17 
  121     1:54:08 Walter Noble            Ottawa        19/24  M30 - 34      791    16   127   15:34  2:05    20   128 1:01:57  31.0     16   121   36:38  5:06 
  122     1:54:08 Michel Trottier         Kingston       9/11  M20 - 24      661    7    135   15:55  2:08    9    144 1:03:03  30.5     6     97   35:11  4:54 
  123     1:54:17 Pina Provenzano         Kingston      15/33  W25 - 29      571    25   169   17:52  2:23    9     91   58:18  32.9     16   145   38:08  5:18 
  124     1:54:18 Andrew Fraser           Ottawa        16/28  M35 - 39      919    15   132   15:47  2:07    23   156 1:04:01  30.0     14    87   34:31  4:48 
  125     1:54:34 Christine Mangubat      Ottawa        16/33  W25 - 29      678    18   115   15:00  2:00    11   104   59:41  32.2     20   172   39:54  5:33 
  126     1:54:35 Mark Waldron            Kingston      17/28  M35 - 39      861    19   158   17:09  2:18    21   146 1:03:21  30.3     12    80   34:06  4:45 
  127     1:54:37 Jean Minchau            Kanata         2/6   W45 - 49      666    2     71   13:26  1:48    2    141 1:02:54  30.5     2    147   38:17  5:19 
  128     1:54:37 Carol Sinclair          Stittsville    3/6   W45 - 49      561    3    108   14:34  1:57    3    145 1:03:17  30.3     1    125   36:47  5:07 
  129     1:54:42 Susan Chamberlain       Kingston       6/17  W30 - 34      726    8     94   14:06  1:53    5    139 1:02:43  30.6     8    142   37:54  5:16 
  130     1:54:45 Chris MacIntyre         Kingston      16/26  M25 - 29      877    18   183   18:49  2:31    16   131 1:02:10  30.9     12    74   33:47  4:42 
  131     1:54:46 Belinda Groves          Orleans        7/14  W35 - 39      688    10   193   19:35  2:37    4    101   59:27  32.3     7    108   35:44  4:58 
  132     1:54:59 Richard Cadman          Battersea     18/28  M35 - 39      548    14   131   15:43  2:06    12    83   58:02  33.1     25   188   41:15  5:44 
  133     1:55:07 Scott McGhee            Toronto       17/26  M25 - 29      836    19   184   18:55  2:32    13   102   59:36  32.2     18   120   36:37  5:06 
  134     1:55:19 Geoff Flynn             Kingston       2/5   M60 & Over    692    2     99   14:20  1:55    2    133 1:02:17  30.8     2    155   38:42  5:23 
  135     1:55:28 Victoria MacDermid      Kingston      17/33  W25 - 29      637    14    98   14:19  1:55    16   147 1:03:24  30.3     15   138   37:45  5:15 
  136     1:55:33 Raymond Ludwin          Toronto       18/26  M25 - 29      913    15   128   15:35  2:05    19   157 1:04:01  30.0     17   112   35:57  5:00 
  137     1:55:41 Phil Montgomery         Sydenham      11/13  M40 - 44      585    11   195   19:52  2:39    8     69   57:07  33.6     11   156   38:42  5:23 
  138     1:56:07 Stacey Jette            Kingston       6/14  W20 - 24      656    7    119   15:08  2:01    5    115 1:00:36  31.7     10   178   40:24  5:37 
  139     1:56:11 Chuck Douglas           Kingston      20/24  M30 - 34      739    13   113   14:52  1:59    19   124 1:01:36  31.2     21   168   39:44  5:32 
  140     1:56:20 Fred Stacey             Carleton Pla  19/28  M35 - 39      838    18   151   16:49  2:15    18   125 1:01:45  31.1     19   140   37:47  5:15 
  141     1:56:27 Shane Jennings          Kingston      20/28  M35 - 39      717    20   162   17:32  2:21    20   138 1:02:42  30.6     17   116   36:14  5:02 
  142     1:56:44 Melanie Bardecki        Toronto        7/14  W20 - 24      674    6    106   14:31  1:57    11   181 1:07:27  28.5     5     94   34:47  4:50 
  143     1:56:51 Francisco DIAZ          Ottawa         9/12  M45 - 49      925    6    109   14:40  1:58    8    152 1:03:50  30.1     10   151   38:23  5:20 
  144     1:56:53 Adriana Ross            Ottawa         7/17  W30 - 34      844    3     65   13:20  1:47    7    160 1:04:11  29.9     11   166   39:23  5:29 
  145     1:56:56 Suzanne Dostaler        Kingston       3/9   W40 - 44      723    5    157   17:08  2:17    3    107   59:58  32.0     5    170   39:51  5:33 
  146     1:57:00 Wilma Pettingill        Kingston       8/17  W30 - 34      855    7     86   13:53  1:51    9    172 1:06:02  29.1     7    131   37:06  5:10 
  147     1:57:09 Dana Rodden             Yarker         5/11  M50 - 54      640    4    124   15:30  2:04    5    119 1:01:12  31.4     8    181   40:28  5:38 
  148     1:57:21 Sean Kesselring         Oswego        21/28  M35 - 39      841    26   217   23:00  3:04    16   110 1:00:03  32.0     13    83   34:19  4:46 
  149     1:57:34 Martine Couture         Ottawa         8/14  W20 - 24      821    8    133   15:49  2:07    6    122 1:01:33  31.2     9    176   40:13  5:36 
  150     1:58:02 Mike Kelly              Orleans       12/13  M40 - 44      601    12   212   21:28  2:52    9     87   58:07  33.0     10   153   38:29  5:21 
  151     1:58:04 Jason Downey            Gananoque     19/26  M25 - 29      936    23   207   20:58  2:48    15   123 1:01:34  31.2     16   105   35:33  4:57 
  152     1:58:34 Judy Tse                Kingston      18/33  W25 - 29      747    24   165   17:41  2:22    23   176 1:06:34  28.9     8     85   34:19  4:46 
  153     1:59:03 Karen Kasman            Kingston      19/33  W25 - 29      655    19   118   15:04  2:01    21   170 1:05:31  29.3     18   152   38:28  5:21 
  154     1:59:11 Bill Duphney            Wolfe Island   6/11  M50 - 54      866    10   221   24:33  3:17    8    135 1:02:29  30.7     2     51   32:09  4:28 
  155     1:59:25 Heather Bussiere        Kingston      20/33  W25 - 29      650    15   100   14:21  1:55    19   153 1:03:50  30.1     26   187   41:15  5:44 
  156     1:59:37 Paul Fraresso           Kingston       7/11  M50 - 54      876    6    134   15:52  2:07    6    130 1:02:06  30.9     10   194   41:40  5:48 
  157     1:59:41 Irvine Francis          Cornwall       8/11  M50 - 54      595    8    144   16:26  2:12    7    134 1:02:20  30.8     9    184   40:56  5:41 
  158     1:59:46 Kim Mitchell            Kingston       9/14  W20 - 24      898    11   152   16:52  2:15    8    159 1:04:07  30.0     7    157   38:48  5:24 
  159     2:00:03 Agathe Nicholson        Kingston       8/14  W35 - 39      763    2     46   12:21  1:39    10   188 1:08:46  27.9     9    159   38:57  5:25 
  160     2:00:08 Colin DEWART            Kingston      22/28  M35 - 39      931    17   143   16:25  2:12    22   148 1:03:29  30.3     23   177   40:15  5:36 
  161     2:00:14 Don CRONE               Verona         1/2   M55 - 59      924    1    129   15:39  2:06    1    142 1:02:58  30.5     1    193   41:38  5:47 
  162     2:00:59 Lisa Davidson           Kingston       9/17  W30 - 34      539    4     66   13:21  1:47    10   174 1:06:09  29.0     12   190   41:30  5:46 
  163     2:01:25 Christine Quenneville   Kingston      21/33  W25 - 29      538    27   175   18:09  2:26    12   112 1:00:33  31.7     27   200   42:44  5:57 
  164     2:01:52 Marc Moreau             Kingston      23/28  M35 - 39      875    24   192   19:33  2:37    24   158 1:04:04  30.0     21   146   38:16  5:19 
  165     2:01:57 Tony Bourne             Kingston       9/11  M50 - 54      880    11   227   30:33  4:05    2     75   57:22  33.5     3     78   34:03  4:44 
  166     2:02:03 Carol Matusiak          Glenburnie     4/9   W40 - 44      583    7    174   18:03  2:25    4    166 1:05:01  29.5     4    160   39:00  5:25 
  167     2:02:35 Andrea Miedema          Trenton       10/14  W20 - 24      756    10   149   16:39  2:14    10   178 1:06:41  28.8     8    164   39:16  5:28 
  168     2:03:00 Kristen Quinn           Kingston      22/33  W25 - 29      908    21   123   15:26  2:04    24   180 1:06:54  28.7     24   183   40:40  5:39 
  169     2:03:03 Carol-Anne McInnes      RR1 Bellevil   5/9   W40 - 44      627    4    150   16:46  2:15    6    185 1:08:00  28.2     3    148   38:18  5:20 
  170     2:03:04 Randy Fowler            Bath          24/28  M35 - 39      617    25   198   20:04  2:41    17   111 1:00:19  31.8     26   199   42:42  5:56 
  171     2:03:06 Graham Brown            Waterloo      10/11  M50 - 54      675    3    120   15:17  2:03    11   194 1:10:10  27.4     7    135   37:39  5:14 
  172     2:03:25 Jongey Lee              Kingston      20/26  M25 - 29      906    17   173   18:01  2:25    20   169 1:05:30  29.3     24   173   39:55  5:33 
  173     2:03:39 Petra Werner            Kingston      23/33  W25 - 29      686    30   194   19:49  2:39    22   173 1:06:06  29.1     14   137   37:45  5:15 
  174     2:03:59 Mark McCrady            RR1 Sydenham  21/26  M25 - 29      753    22   202   20:20  2:43    21   171 1:05:54  29.1     21   139   37:45  5:15 
  175     2:04:02 Amy Sidwell             Kingston      11/14  W20 - 24      872    9    137   16:08  2:10    9    163 1:04:43  29.7     12   204   43:11  6:00 
  176     2:04:11 Kelly Cranston          Belleville    24/33  W25 - 29      742    22   140   16:19  2:11    20   164 1:04:45  29.7     28   203   43:08  6:00 
  177     2:04:14 Marion Wyatt            Brockville     1/1   W50 - 54      732    1     73   13:29  1:48    1    177 1:06:36  28.8     1    211   44:10  6:08 
  178     2:04:16 Robert Roy              Kingston      25/28  M35 - 39      750    23   186   19:01  2:33    26   165 1:04:51  29.6     24   179   40:26  5:37 
  179     2:04:32 Leann Cunningham        Wolfe Island  10/17  W30 - 34      795    10   130   15:41  2:06    8    168 1:05:10  29.5     13   209   43:42  6:05 
  180     2:04:45 Luis ALVARADO           North York    21/24  M30 - 34      701    22   187   19:03  2:33    21   179 1:06:41  28.8     20   161   39:02  5:26 
  181     2:04:50 Lynn Wagar              Amherstview    9/14  W35 - 39      687    11   196   20:01  2:41    9    186 1:08:04  28.2     8    123   36:45  5:07 
  182     2:04:54 Nathalie Charette       Gloucester    11/17  W30 - 34      757    9    111   14:48  1:59    12   209 1:14:36  25.7     5    104   35:31  4:56 
  183     2:05:28 Tom Bush                Kingston      22/26  M25 - 29      767    20   199   20:11  2:42    22   183 1:07:46  28.3     20   133   37:32  5:13 
  184     2:05:43 Sarah Twomey            Yarker        10/14  W35 - 39      620    8    159   17:18  2:19    8    175 1:06:23  28.9     11   196   42:03  5:51 
  185     2:05:49 Natasha Uens            Belleville    25/33  W25 - 29      902    17   110   14:47  1:59    26   199 1:11:25  26.9     19   167   39:38  5:31 
  186     2:05:57 Jacques Babin           Boucherville  26/28  M35 - 39      740    21   168   17:47  2:23    25   162 1:04:42  29.7     27   206   43:29  6:03 
  187     2:06:05 David Kelly             Brockville    23/26  M25 - 29      760                              26                         10    58   32:39  4:33 
  188     2:07:18 Shelly McKenna          Amherstview    6/9   W40 - 44      729    2     88   13:56  1:52    5    167 1:05:05  29.5     8    224   48:18  6:43 
  189     2:08:16 Lynn Noonan             Belleville     7/9   W40 - 44      793    8    189   19:25  2:36    7    187 1:08:42  28.0     6    175   40:10  5:35 
  190     2:09:45 Paul B. MCANENEY        Toronto       24/26  M25 - 29      935                              25                         19   132   37:10  5:10 
  191     2:10:06 Karen Sorenson          Kingston      26/33  W25 - 29      546    20   121   15:18  2:03    25   193 1:10:06  27.4     30   214   44:42  6:13 
  192     2:10:07 Joe Majkut              Joyceville    11/11  M50 - 54      887    9    219   23:14  3:06    10   161 1:04:37  29.7     11   197   42:17  5:53 
  193     2:10:46 Susan Thorne            Kingston      27/33  W25 - 29      684    29   182   18:35  2:29    27   200 1:11:33  26.8     23   182   40:39  5:39 
  194     2:11:06 Alexander Balaban       Kanata        10/12  M45 - 49      755    12   222   27:11  3:38    10   189 1:09:26  27.7     8     88   34:31  4:48 
  195     2:12:57 Kim Walsh               Belleville    12/17  W30 - 34      807    12   161   17:23  2:19    14   216 1:17:02  24.9     10   154   38:33  5:22 
  196     2:13:01 Kathryn Handford        Toronto       11/14  W35 - 39      541    12   201   20:19  2:43    11   204 1:13:28  26.1     10   163   39:15  5:27 
  197     2:13:23 John Hall               Kingston      11/12  M45 - 49      888    10   164   17:41  2:22    12   201 1:12:59  26.3     12   201   42:44  5:57 
  198     2:14:13 Michelle Benton         Kingston      28/33  W25 - 29      869    23   160   17:21  2:19    30   215 1:16:51  25.0     21   174   40:02  5:34 
  199     2:14:21 Richard Cameron         Kingston      12/12  M45 - 49      882    11   213   21:30  2:52    11   198 1:11:15  27.0     11   192   41:37  5:47 
  200     2:14:21 Colleen Cameron         Kingston       3/4   Junior Women  850    4    214   21:31  2:53    3    197 1:11:14  27.0     4    191   41:37  5:47 
  201     2:14:57 Kimberley Michelutti    Toronto       12/14  W20 - 24      891    14   215   22:23  2:59    12   196 1:11:05  27.0     11   189   41:30  5:46 
  202     2:15:32 Deb Girling             Kingston      29/33  W25 - 29      759    31   197   20:03  2:41    28   208 1:14:31  25.8     25   185   40:59  5:42 
  203     2:15:33 John Vellone            RR2 inverary  10/11  M20 - 24      664    10   206   20:57  2:48    11   195 1:10:43  27.2     10   210   43:54  6:06 
  204     2:15:48 Susan Radford           Perth Road     4/6   W45 - 49      905    5    178   18:22  2:27    4    212 1:15:26  25.5     4    195   42:01  5:51 
  205     2:15:51 Terry Hodge             Brockville    27/28  M35 - 39      530    28   226   28:40  3:50    27   184 1:07:54  28.3     22   165   39:18  5:28 
  206     2:16:17 Tara Wild               Kingston       8/9   W40 - 44      776    9    203   20:21  2:43    8    203 1:13:26  26.2     7    198   42:30  5:55 
  207     2:16:39 David Cunningham        Kingston      22/24  M30 - 34      769    20   170   17:54  2:24    24   221 1:17:36  24.7     22   186   41:10  5:43 
  208     2:17:36 Christy Kidman          Oshawa        13/17  W30 - 34      709    11   141   16:22  2:11    11   192 1:09:49  27.5     17   230   51:25  7:09 
  209     2:17:52 Karen Beitel            Toronto       14/17  W30 - 34      914                              17                         9    144   38:02  5:17 
  210     2:19:11 Wayne Gollogly          Gananoque      3/5   M60 & Over    555    3    211   21:10  2:50    4    207 1:14:27  25.8     4    208   43:36  6:04 
  211     2:20:32 Joyce Hostyn            Kingston      12/14  W35 - 39      894    9    191   19:32  2:37    13   213 1:15:40  25.4     13   218   45:21  6:18 
  212     2:20:43 Siobhan Coady           Kingston      15/17  W30 - 34      667    15   204   20:38  2:45    13   211 1:15:10  25.5     14   215   44:56  6:15 
  213     2:21:21 Donna O'Connor          Kingston       5/6   W45 - 49      638    4    177   18:18  2:27    5    223 1:18:03  24.6     5    217   45:00  6:15 
  214 DQ  2:21:43 James Gekko             Kingston      23/24  M30 - 34      705    23   225   27:43  3:42    22   190 1:09:32  27.6     23   212   44:28  6:11 
  215     2:21:49 Tanya Zarn              Kingston      30/33  W25 - 29      624    26   171   17:56  2:24    29   210 1:15:04  25.6     31   226   48:49  6:47 
  216     2:23:08 Paul J. MCANENEY        Toronto        4/5   M60 & Over    934    4    230   32:27  4:20    3    182 1:07:43  28.4     3    202   42:58  5:58 
  217     2:23:32 Monique Foell           Glenburnie    13/14  W35 - 39      659    13   209   21:06  2:49    14   220 1:17:31  24.8     12   216   44:57  6:15 
  218     2:24:30 Sabrina Feldman         Nepean         4/4   Junior Women  893    3    155   17:03  2:17    4    230 1:27:35  21.9     3    171   39:52  5:33 
  219     2:25:31 Elisabeth Hoffman       Kingston      16/17  W30 - 34      724    16   210   21:07  2:49    15   218 1:17:05  24.9     15   222   47:19  6:35 
  220 DQ  2:26:33 Helen Ostar             Brockville    14/14  W35 - 39      845    14   224   27:29  3:40    12   205 1:13:33  26.1     14   219   45:32  6:20 
  221     2:26:34 Bernie Johnson          Maitland      28/28  M35 - 39      846    27   223   27:28  3:40    28   206 1:13:34  26.1     28   220   45:33  6:20 
  222     2:27:18 Andrew Jones            Ottawa        25/26  M25 - 29      886    12   101   14:23  1:56    24   224 1:18:44  24.4     26   233   54:12  7:32 
  223     2:27:41 Jim Elyot               Kingston      13/13  M40 - 44      890                              13                         13   229   51:06  7:06 
  224     2:27:58 Nicolas Phan            Toronto       26/26  M25 - 29      801    24   218   23:02  3:05    23   217 1:17:03  24.9     25   223   47:54  6:40 
  225     2:28:09 Andrea Schneider        Kingston      31/33  W25 - 29      636    28   181   18:33  2:29    31   219 1:17:16  24.8     33   231   52:21  7:17 
  226     2:29:00 Renee Davis             Kingston      17/17  W30 - 34      901    14   190   19:29  2:36    16   225 1:19:03  24.3     16   228   50:29  7:01 
  227     2:29:18 Lynn Bennett            Kingston       6/6   W45 - 49      822    6    185   18:59  2:32    6    227 1:21:54  23.4     6    225   48:27  6:44 
  228     2:30:12 Rebecca Stulberg        Kingston      32/33  W25 - 29      805    32   216   22:31  3:01    32   222 1:18:03  24.6     32   227   49:40  6:54 
  229     2:30:12 Michael Rooney          Hamilton      24/24  M30 - 34      802    24   229   30:36  4:05    23   202 1:13:10  26.2     24   221   46:27  6:27 
  230     2:33:09 Annette Wajszczuk       Kingston      13/14  W20 - 24      718    13   208   21:03  2:49    14   229 1:27:33  21.9     13   213   44:33  6:12 
  231     2:33:31 Lorene Hatelt           Brampton       9/9   W40 - 44      840    6    172   18:00  2:24    9    214 1:15:45  25.4     9    236   59:47  8:19 
  232     2:33:41 Danielle Chanda         Kingston      14/14  W20 - 24      681    12   205   20:39  2:46    13   226 1:20:05  24.0     14   232   52:58  7:22 
  233 DQ  2:34:37 Vincent Dawe            Kingston      11/11  M20 - 24      848    11   228   30:33  4:05    10   191 1:09:43  27.5     11   234   54:21  7:33 
  234     2:43:06 Peter Vangestel         Erinsville     2/2   M55 - 59      676    2    231   32:46  4:23    2    228 1:27:02  22.1     2    205   43:20  6:02 
  235     2:46:36 Joanne Richard          Kingston      33/33  W25 - 29      868    33   220   23:19  3:07    33   231 1:39:43  19.3     29   207   43:35  6:04 
  236     2:48:29 Robert Dolan            Belleville     5/5   M60 & Over    896                              5                          5    235   54:48  7:37